Time;durP1;ratioP1;P1;durP2;ratioP2;P2;SDS_P1;SDS_P2;PMS_P1;PMS_P2;Temp;Humidity;BMP_temperature;BMP_pressure;BME280_temperature;BME280_humidity;BME280_pressure;Samples;Min_cycle;Max_cycle;Signal;HPM_P1;HPM_P2
2021/01/17 00:00:28;;;;;;;16.38;8.68;;;;;7.60;101359.00;;;;5009232;28;20233;-79
2021/01/17 00:02:55;;;;;;;15.63;8.38;;;;;7.60;101351.00;;;;5008054;28;20217;-79
2021/01/17 00:05:23;;;;;;;14.90;7.72;;;;;7.60;101346.00;;;;5007020;28;20247;-80
2021/01/17 00:07:50;;;;;;;14.63;8.88;;;;;7.60;101344.00;;;;5009196;28;20225;-80
2021/01/17 00:10:20;;;;;;;15.07;7.97;;;;;7.60;101350.00;;;;5008969;28;20213;-79
2021/01/17 00:12:48;;;;;;;16.45;8.30;;;;;7.60;101347.00;;;;5007958;28;20201;-80
2021/01/17 00:15:15;;;;;;;15.68;9.32;;;;;7.60;101339.00;;;;5001223;28;20255;-79
2021/01/17 00:17:44;;;;;;;14.50;7.80;;;;;7.60;101343.00;;;;5009103;28;20197;-79
2021/01/17 00:20:12;;;;;;;15.38;8.60;;;;;7.60;101347.00;;;;5008573;28;20197;-79
2021/01/17 00:22:40;;;;;;;14.88;8.27;;;;;7.60;101342.00;;;;5008246;28;20189;-80
2021/01/17 00:25:08;;;;;;;14.23;8.20;;;;;7.60;101338.00;;;;5002227;28;20198;-79
2021/01/17 00:27:35;;;;;;;15.63;8.82;;;;;7.60;101347.00;;;;5006663;28;20231;-79
2021/01/17 00:30:03;;;;;;;16.73;9.60;;;;;7.60;101345.00;;;;4999525;28;20201;-80
2021/01/17 00:32:30;;;;;;;17.15;9.02;;;;;7.60;101348.00;;;;4991816;28;20706;-80
2021/01/17 00:34:58;;;;;;;16.00;8.70;;;;;7.60;101348.00;;;;4998931;28;20205;-80
2021/01/17 00:37:25;;;;;;;17.98;9.57;;;;;7.60;101351.00;;;;5007938;28;20255;-79
2021/01/17 00:39:51;;;;;;;14.85;7.80;;;;;7.60;101338.00;;;;5008531;28;20611;-80
2021/01/17 00:42:18;;;;;;;16.88;9.02;;;;;7.60;101342.00;;;;5006625;28;20193;-79
2021/01/17 00:44:45;;;;;;;19.90;10.05;;;;;7.60;101341.00;;;;5005910;28;20211;-79
2021/01/17 00:47:12;;;;;;;15.55;8.77;;;;;7.60;101334.00;;;;5005375;28;20236;-79
2021/01/17 00:49:39;;;;;;;12.98;7.80;;;;;7.60;101339.00;;;;5000506;28;20603;-79
2021/01/17 00:52:07;;;;;;;18.38;9.60;;;;;7.60;101329.00;;;;4991034;28;20205;-80
2021/01/17 00:54:34;;;;;;;13.93;7.63;;;;;7.60;101330.00;;;;5004130;28;20197;-80
2021/01/17 00:57:04;;;;;;;17.27;9.38;;;;;7.60;101332.00;;;;5006378;28;20201;-79
2021/01/17 00:59:31;;;;;;;14.82;8.13;;;;;7.60;101328.00;;;;5007692;28;20597;-79
2021/01/17 01:01:57;;;;;;;16.63;8.90;;;;;7.70;101331.00;;;;5008332;28;20212;-79
2021/01/17 01:04:24;;;;;;;16.38;8.98;;;;;7.70;101327.00;;;;5006923;28;20201;-79
2021/01/17 01:06:51;;;;;;;16.08;8.32;;;;;7.70;101321.00;;;;5002435;28;20205;-79
2021/01/17 01:09:19;;;;;;;17.23;9.25;;;;;7.70;101326.00;;;;5007903;28;20208;-79
2021/01/17 01:11:48;;;;;;;16.63;9.68;;;;;7.60;101322.00;;;;5005697;28;20212;-79
2021/01/17 01:14:15;;;;;;;15.73;8.55;;;;;7.70;101315.00;;;;5001983;28;20197;-79
2021/01/17 01:16:48;;;;;;;16.35;7.68;;;;;7.60;101326.00;;;;5008566;28;20201;-79
2021/01/17 01:19:15;;;;;;;17.85;8.88;;;;;7.70;101310.00;;;;5007214;28;20611;-79
2021/01/17 01:21:42;;;;;;;13.98;8.43;;;;;7.70;101312.00;;;;5008303;28;20682;-79
2021/01/17 01:24:09;;;;;;;16.13;8.57;;;;;7.70;101313.00;;;;4998027;28;20251;-79
2021/01/17 01:26:39;;;;;;;14.48;7.97;;;;;7.70;101307.00;;;;5002310;28;20193;-79
2021/01/17 01:29:07;;;;;;;16.02;8.52;;;;;7.70;101316.00;;;;5007962;28;20602;-79
2021/01/17 01:31:35;;;;;;;18.33;9.02;;;;;7.70;101314.00;;;;5008315;28;20207;-79
2021/01/17 01:34:03;;;;;;;18.05;8.73;;;;;7.70;101317.00;;;;5007834;28;20193;-79
2021/01/17 01:36:31;;;;;;;14.90;8.32;;;;;7.70;101324.00;;;;5008115;28;20597;-78
2021/01/17 01:38:58;;;;;;;15.98;8.45;;;;;7.70;101317.00;;;;5005879;28;20976;-78
2021/01/17 01:41:28;;;;;;;17.13;8.77;;;;;7.70;101312.00;;;;4999040;28;20212;-78
2021/01/17 01:43:56;;;;;;;13.98;7.95;;;;;7.70;101319.00;;;;5002043;28;20197;-79
2021/01/17 01:46:24;;;;;;;16.85;8.65;;;;;7.70;101310.00;;;;5009637;28;20212;-79
2021/01/17 01:48:53;;;;;;;15.55;7.93;;;;;7.70;101305.00;;;;5010923;28;20225;-79
2021/01/17 01:51:21;;;;;;;16.33;8.32;;;;;7.80;101318.00;;;;5009875;28;20201;-79
2021/01/17 01:53:49;;;;;;;15.50;7.82;;;;;7.80;101316.00;;;;5010253;28;20204;-78
2021/01/17 01:56:17;;;;;;;16.25;8.32;;;;;7.80;101310.00;;;;4999890;28;20256;-79
2021/01/17 01:58:44;;;;;;;13.57;7.65;;;;;7.80;101304.00;;;;4993622;28;20233;-78
2021/01/17 02:01:12;;;;;;;14.65;8.02;;;;;7.80;101300.00;;;;5010575;28;20193;-79
2021/01/17 02:03:44;;;;;;;14.65;7.35;;;;;7.80;101296.00;;;;5009947;28;20204;-78
2021/01/17 02:06:11;;;;;;;13.07;7.78;;;;;7.80;101292.00;;;;5010284;28;20650;-79
2021/01/17 02:09:04;;;;;;;14.75;8.25;;;;;7.70;101288.00;;;;5010653;28;20248;-78
2021/01/17 02:12:02;;;;;;;14.88;8.00;;;;;7.60;101290.00;;;;5000956;28;20205;-78
2021/01/17 02:14:42;;;;;;;14.80;7.95;;;;;7.70;101278.00;;;;4999932;28;20209;-79
2021/01/17 02:17:13;;;;;;;14.20;7.97;;;;;7.70;101276.00;;;;5011411;28;20192;-79
2021/01/17 02:20:02;;;;;;;12.85;7.35;;;;;7.70;101277.00;;;;5005544;28;20271;-79
2021/01/17 02:22:34;;;;;;;13.75;7.93;;;;;7.70;101272.00;;;;4995318;28;20248;-79
2021/01/17 02:25:06;;;;;;;13.52;7.18;;;;;7.70;101277.00;;;;5008635;28;20193;-79
2021/01/17 02:27:33;;;;;;;14.75;7.10;;;;;7.80;101276.00;;;;5007871;28;20214;-79
2021/01/17 02:30:03;;;;;;;12.82;6.68;;;;;7.80;101280.00;;;;5010514;28;20200;-78
2021/01/17 02:32:34;;;;;;;16.48;8.07;;;;;7.80;101298.00;;;;5011242;28;20201;-79
2021/01/17 02:35:01;;;;;;;12.52;7.05;;;;;7.80;101291.00;;;;5009508;28;20189;-78
2021/01/17 02:37:38;;;;;;;16.35;7.90;;;;;7.70;101299.00;;;;5010659;28;20565;-79
2021/01/17 02:40:09;;;;;;;11.90;6.93;;;;;7.80;101299.00;;;;5001350;28;20693;-79
2021/01/17 02:42:39;;;;;;;13.50;7.82;;;;;7.80;101291.00;;;;4996215;28;20201;-79
2021/01/17 02:45:07;;;;;;;15.45;8.02;;;;;7.80;101287.00;;;;5008154;28;20212;-79
2021/01/17 02:47:34;;;;;;;13.02;6.93;;;;;7.80;101288.00;;;;5004174;28;20276;-79
2021/01/17 02:50:02;;;;;;;16.52;7.85;;;;;7.80;101290.00;;;;5002806;28;20208;-79
2021/01/17 02:52:38;;;;;;;14.43;7.85;;;;;7.80;101286.00;;;;4998739;28;20205;-79
2021/01/17 02:55:08;;;;;;;12.70;7.03;;;;;7.80;101289.00;;;;4991814;28;20212;-79
2021/01/17 02:57:37;;;;;;;14.95;7.78;;;;;7.80;101290.00;;;;5004967;28;20201;-79
2021/01/17 03:00:08;;;;;;;15.65;7.78;;;;;7.80;101289.00;;;;4994376;28;20277;-79
2021/01/17 03:02:36;;;;;;;14.30;7.15;;;;;7.80;101278.00;;;;4992898;28;20247;-79
2021/01/17 03:05:05;;;;;;;12.80;7.28;;;;;7.80;101283.00;;;;5007346;28;20663;-80
2021/01/17 03:07:34;;;;;;;13.20;6.97;;;;;7.80;101284.00;;;;5009993;28;20224;-80
2021/01/17 03:10:04;;;;;;;14.40;8.30;;;;;7.90;101289.00;;;;4994516;28;20199;-80
2021/01/17 03:12:31;;;;;;;12.38;6.78;;;;;7.80;101284.00;;;;5011826;28;20208;-80
2021/01/17 03:15:01;;;;;;;15.25;8.00;;;;;7.80;101286.00;;;;5013370;28;20549;-80
2021/01/17 03:17:28;;;;;;;12.60;7.05;;;;;7.90;101287.00;;;;5008829;28;20208;-81
2021/01/17 03:19:55;;;;;;;13.43;7.25;;;;;7.90;101292.00;;;;5006820;28;20591;-80
2021/01/17 03:22:21;;;;;;;10.95;6.35;;;;;7.90;101297.00;;;;5005448;28;20208;-80
2021/01/17 03:24:48;;;;;;;14.30;6.78;;;;;7.90;101279.00;;;;4990539;28;20213;-80
2021/01/17 03:27:15;;;;;;;13.57;7.32;;;;;7.90;101277.00;;;;5007287;28;20204;-79
2021/01/17 03:29:43;;;;;;;13.80;7.53;;;;;7.90;101286.00;;;;4999454;28;20207;-78
2021/01/17 03:32:09;;;;;;;12.25;6.97;;;;;7.90;101280.00;;;;5008794;28;20667;-79
2021/01/17 03:34:36;;;;;;;13.60;7.72;;;;;7.90;101279.00;;;;5002220;28;20197;-79
2021/01/17 03:37:05;;;;;;;13.52;6.88;;;;;7.90;101278.00;;;;5009973;28;20208;-79
2021/01/17 03:39:32;;;;;;;11.82;6.20;;;;;7.90;101277.00;;;;5008304;28;20211;-78
2021/01/17 03:41:59;;;;;;;10.65;5.90;;;;;8.00;101266.00;;;;4999509;28;20260;-79
2021/01/17 03:44:25;;;;;;;13.60;6.90;;;;;7.90;101269.00;;;;4995549;28;20201;-79
2021/01/17 03:46:53;;;;;;;10.40;5.88;;;;;7.90;101274.00;;;;5008838;28;20196;-78
2021/01/17 03:49:20;;;;;;;13.02;7.43;;;;;8.00;101269.00;;;;5008998;28;20225;-78
2021/01/17 03:51:46;;;;;;;11.55;6.55;;;;;7.90;101270.00;;;;5002892;28;20204;-78
2021/01/17 03:54:13;;;;;;;12.15;6.95;;;;;8.00;101277.00;;;;5006895;28;20202;-78
2021/01/17 03:56:40;;;;;;;11.98;6.43;;;;;8.00;101271.00;;;;4993311;28;20205;-78
2021/01/17 03:59:07;;;;;;;13.80;6.95;;;;;8.00;101270.00;;;;5005946;28;20236;-78
2021/01/17 04:01:33;;;;;;;11.65;6.45;;;;;8.00;101279.00;;;;5008604;28;20243;-78
2021/01/17 04:04:01;;;;;;;10.13;6.47;;;;;8.00;101277.00;;;;5007914;28;20551;-78
2021/01/17 04:06:27;;;;;;;10.68;6.45;;;;;8.00;101280.00;;;;5007727;28;20681;-79
2021/01/17 04:08:54;;;;;;;12.43;6.55;;;;;8.00;101277.00;;;;4988857;28;20234;-78
2021/01/17 04:11:21;;;;;;;11.20;6.63;;;;;8.00;101276.00;;;;5006595;28;20204;-79
2021/01/17 04:13:48;;;;;;;13.95;6.68;;;;;8.00;101284.00;;;;5007833;28;20209;-79
2021/01/17 04:16:14;;;;;;;12.38;7.32;;;;;8.00;101272.00;;;;5008847;28;20193;-79
2021/01/17 04:18:41;;;;;;;11.07;6.57;;;;;8.00;101285.00;;;;5009520;28;20204;-79
2021/01/17 04:21:10;;;;;;;14.82;7.32;;;;;8.00;101287.00;;;;5005057;28;20201;-78
2021/01/17 04:23:36;;;;;;;11.82;7.07;;;;;8.10;101289.00;;;;5006394;28;20197;-78
2021/01/17 04:26:03;;;;;;;10.15;5.88;;;;;8.10;101288.00;;;;5002044;28;20255;-79
2021/01/17 04:28:30;;;;;;;13.60;6.88;;;;;8.10;101282.00;;;;5004821;28;20232;-78
2021/01/17 04:30:57;;;;;;;12.48;6.18;;;;;8.10;101279.00;;;;5004115;28;20205;-78
2021/01/17 04:33:23;;;;;;;11.02;6.78;;;;;8.10;101277.00;;;;5009356;28;20679;-78
2021/01/17 04:35:50;;;;;;;12.77;6.53;;;;;8.10;101282.00;;;;5008967;28;20547;-79
2021/01/17 04:38:18;;;;;;;11.32;6.07;;;;;8.10;101282.00;;;;5008743;28;20247;-79
2021/01/17 04:40:44;;;;;;;11.13;6.47;;;;;8.10;101284.00;;;;5006093;28;20197;-79
2021/01/17 04:43:23;;;;;;;12.88;6.57;;;;;8.10;101285.00;;;;5003946;28;20209;-80
2021/01/17 04:45:52;;;;;;;11.45;6.32;;;;;8.10;101285.00;;;;5005701;28;20292;-79
2021/01/17 04:48:20;;;;;;;10.88;7.05;;;;;8.10;101280.00;;;;4995757;28;20228;-80
2021/01/17 04:50:49;;;;;;;11.85;6.90;;;;;8.10;101278.00;;;;5008425;28;20574;-80
2021/01/17 04:53:19;;;;;;;12.60;7.18;;;;;8.20;101284.00;;;;5007982;28;20193;-79
2021/01/17 04:55:46;;;;;;;10.85;5.60;;;;;8.20;101282.00;;;;5007439;28;20206;-80
2021/01/17 04:58:18;;;;;;;12.38;5.97;;;;;8.10;101282.00;;;;5008879;28;20251;-79
2021/01/17 05:00:55;;;;;;;12.13;6.20;;;;;8.10;101283.00;;;;5008928;28;20192;-80
2021/01/17 05:03:37;;;;;;;11.10;6.65;;;;;8.10;101280.00;;;;5001568;28;20248;-79
2021/01/17 05:06:20;;;;;;;11.88;6.30;;;;;8.10;101282.00;;;;5007107;28;20193;-80
2021/01/17 05:08:56;;;;;;;10.90;6.65;;;;;8.20;101290.00;;;;5008986;28;20221;-79
2021/01/17 05:11:33;;;;;;;12.70;5.97;;;;;8.10;101288.00;;;;5006102;28;20197;-80
2021/01/17 05:14:11;;;;;;;12.02;6.35;;;;;8.10;101286.00;;;;5007217;28;20209;-80
2021/01/17 05:16:41;;;;;;;12.00;6.10;;;;;8.20;101280.00;;;;5008483;28;20201;-80
2021/01/17 05:19:15;;;;;;;14.70;7.53;;;;;8.10;101281.00;;;;5005126;28;20193;-79
2021/01/17 05:21:47;;;;;;;10.55;5.85;;;;;8.20;101276.00;;;;5007299;28;20251;-80
2021/01/17 05:24:16;;;;;;;10.55;6.20;;;;;8.20;101277.00;;;;4995984;28;20407;-80
2021/01/17 05:26:51;;;;;;;13.13;7.10;;;;;8.20;101280.00;;;;5013035;28;20263;-80
2021/01/17 05:29:19;;;;;;;11.75;6.18;;;;;8.20;101276.00;;;;5010839;28;20247;-80
2021/01/17 05:31:50;;;;;;;14.07;6.80;;;;;8.20;101273.00;;;;4998741;28;20284;-80
2021/01/17 05:34:18;;;;;;;11.18;6.78;;;;;8.20;101280.00;;;;5000034;28;20284;-79
2021/01/17 05:36:45;;;;;;;11.50;6.25;;;;;8.20;101275.00;;;;4999029;28;20646;-79
2021/01/17 05:39:12;;;;;;;16.08;7.20;;;;;8.20;101274.00;;;;4996019;28;20205;-79
2021/01/17 05:41:40;;;;;;;13.88;7.05;;;;;8.20;101280.00;;;;5004136;28;20209;-80
2021/01/17 05:44:07;;;;;;;10.80;6.20;;;;;8.30;101283.00;;;;5002909;28;20585;-80
2021/01/17 05:46:33;;;;;;;11.43;6.22;;;;;8.30;101290.00;;;;5006678;28;20193;-80
2021/01/17 05:49:10;;;;;;;12.18;6.38;;;;;8.20;101286.00;;;;4999201;28;20222;-80
2021/01/17 05:51:37;;;;;;;11.63;6.45;;;;;8.30;101291.00;;;;5008069;28;20193;-80
2021/01/17 05:54:08;;;;;;;12.20;6.25;;;;;8.30;101289.00;;;;5002492;28;20829;-79
2021/01/17 05:56:36;;;;;;;10.88;6.68;;;;;8.30;101288.00;;;;5011374;28;20629;-79
2021/01/17 05:59:04;;;;;;;15.05;7.05;;;;;8.30;101293.00;;;;5009260;28;20241;-80
2021/01/17 06:01:34;;;;;;;11.00;5.43;;;;;8.30;101299.00;;;;5003900;28;20197;-80
2021/01/17 06:04:12;;;;;;;13.18;6.90;;;;;8.30;101305.00;;;;5003844;28;20679;-79
2021/01/17 06:06:42;;;;;;;11.77;6.15;;;;;8.30;101299.00;;;;5010769;28;20260;-80
2021/01/17 06:09:17;;;;;;;12.90;6.68;;;;;8.30;101301.00;;;;5010876;28;20593;-80
2021/01/17 06:11:57;;;;;;;10.95;6.10;;;;;8.30;101305.00;;;;5009260;28;20977;-79
2021/01/17 06:14:25;;;;;;;14.30;7.18;;;;;8.30;101307.00;;;;5010577;28;20232;-79
2021/01/17 06:16:58;;;;;;;13.65;6.80;;;;;8.30;101307.00;;;;5010173;28;20193;-80
2021/01/17 06:19:32;;;;;;;13.45;6.30;;;;;8.30;101308.00;;;;5010987;28;20225;-79
2021/01/17 06:22:01;;;;;;;13.50;6.47;;;;;8.30;101315.00;;;;5005653;28;20299;-79
2021/01/17 06:24:36;;;;;;;14.20;6.55;;;;;8.30;101331.00;;;;4999798;28;20682;-79
2021/01/17 06:27:04;;;;;;;13.15;6.85;;;;;8.40;101330.00;;;;5008918;28;20200;-80
2021/01/17 06:29:39;;;;;;;12.23;6.10;;;;;8.30;101327.00;;;;5009929;28;20221;-80
2021/01/17 06:32:14;;;;;;;13.13;6.75;;;;;8.30;101327.00;;;;4997653;28;20188;-80
2021/01/17 06:34:46;;;;;;;12.18;6.07;;;;;8.30;101326.00;;;;5005800;28;20200;-80
2021/01/17 06:37:13;;;;;;;12.35;5.82;;;;;8.40;101320.00;;;;5007171;28;20202;-80
2021/01/17 06:39:47;;;;;;;12.52;6.68;;;;;8.30;101326.00;;;;5010538;28;20208;-80
2021/01/17 06:42:17;;;;;;;12.40;6.10;;;;;8.40;101332.00;;;;5000256;28;20223;-80
2021/01/17 06:44:45;;;;;;;14.63;7.07;;;;;8.40;101331.00;;;;5000273;28;20193;-80
2021/01/17 06:47:20;;;;;;;11.60;6.68;;;;;8.30;101335.00;;;;5010706;28;21009;-79
2021/01/17 06:49:48;;;;;;;12.80;6.43;;;;;8.40;101334.00;;;;5001337;28;20219;-80
2021/01/17 06:52:16;;;;;;;12.88;6.57;;;;;8.40;101336.00;;;;5009700;28;20200;-80
2021/01/17 06:54:45;;;;;;;14.48;7.45;;;;;8.40;101341.00;;;;5005710;28;20289;-80
2021/01/17 06:57:12;;;;;;;12.88;6.20;;;;;8.40;101351.00;;;;5009783;28;20200;-80
2021/01/17 06:59:40;;;;;;;15.23;6.85;;;;;8.40;101341.00;;;;5013129;28;20706;-80
2021/01/17 07:02:43;;;;;;;15.27;6.82;;;;;8.40;101348.00;;;;5007194;28;20225;-80
2021/01/17 07:06:05;;;;;;;14.55;6.45;;;;;8.40;101357.00;;;;5009882;28;20204;-81
2021/01/17 07:08:52;;;;;;;15.13;6.57;;;;;8.30;101351.00;;;;5006448;28;20286;-80
2021/01/17 07:11:34;;;;;;;16.40;6.25;;;;;8.40;101363.00;;;;5012107;28;20205;-80
2021/01/17 07:14:07;;;;;;;13.50;6.60;;;;;8.40;101372.00;;;;5007694;28;20205;-79
2021/01/17 07:16:35;;;;;;;18.45;7.47;;;;;8.40;101369.00;;;;5006992;28;20590;-80
2021/01/17 07:19:08;;;;;;;15.38;7.40;;;;;8.30;101376.00;;;;5008182;28;20208;-79
2021/01/17 07:21:37;;;;;;;14.15;6.65;;;;;8.40;101378.00;;;;5007587;28;20207;-80
2021/01/17 07:24:07;;;;;;;14.85;7.68;;;;;8.40;101384.00;;;;5009243;28;20201;-79
2021/01/17 07:26:56;;;;;;;11.57;5.68;;;;;8.30;101381.00;;;;5007892;28;20201;-79
2021/01/17 07:29:27;;;;;;;16.88;7.38;;;;;8.40;101395.00;;;;5009316;28;20240;-79
2021/01/17 07:31:55;;;;;;;17.63;7.68;;;;;8.40;101395.00;;;;5010053;28;20204;-79
2021/01/17 07:34:23;;;;;;;15.23;7.20;;;;;8.40;101396.00;;;;5007275;28;20642;-80
2021/01/17 07:36:50;;;;;;;14.82;7.10;;;;;8.50;101407.00;;;;5005300;28;20193;-79
2021/01/17 07:39:20;;;;;;;14.57;6.95;;;;;8.50;101403.00;;;;5006955;28;20567;-79
2021/01/17 07:41:49;;;;;;;18.13;8.18;;;;;8.50;101407.00;;;;5003546;28;20201;-80
2021/01/17 07:44:18;;;;;;;15.13;7.32;;;;;8.50;101408.00;;;;5006936;28;20247;-80
2021/01/17 07:46:46;;;;;;;12.18;6.47;;;;;8.50;101414.00;;;;5007516;28;20201;-79
2021/01/17 07:49:14;;;;;;;16.60;7.00;;;;;8.50;101412.00;;;;5002552;28;20642;-79
2021/01/17 07:51:43;;;;;;;14.63;7.45;;;;;8.50;101411.00;;;;5006406;28;20204;-80
2021/01/17 07:54:19;;;;;;;19.42;8.30;;;;;8.50;101416.00;;;;5005510;28;20689;-80
2021/01/17 07:56:48;;;;;;;13.77;7.20;;;;;8.50;101416.00;;;;5002022;28;20196;-80
2021/01/17 07:59:23;;;;;;;13.50;7.07;;;;;8.60;101424.00;;;;5000576;28;20236;-80
2021/01/17 08:01:50;;;;;;;17.67;7.43;;;;;8.60;101415.00;;;;5006925;28;20201;-82
2021/01/17 08:04:46;;;;;;;14.98;7.45;;;;;8.50;101425.00;;;;5008500;28;20197;-81
2021/01/17 08:07:31;;;;;;;13.75;5.80;;;;;8.50;101427.00;;;;5006262;28;20208;-81
2021/01/17 08:09:58;;;;;;;12.18;6.57;;;;;8.60;101436.00;;;;5005049;28;20348;-81
2021/01/17 08:12:42;;;;;;;15.43;7.18;;;;;8.50;101429.00;;;;5002221;28;20205;-82
2021/01/17 08:15:28;;;;;;;14.77;6.90;;;;;8.60;101435.00;;;;4998048;28;20224;-79
2021/01/17 08:17:55;;;;;;;11.80;6.22;;;;;8.70;101441.00;;;;5008491;28;20259;-80
2021/01/17 08:20:28;;;;;;;14.27;7.10;;;;;8.60;101448.00;;;;5008388;28;20193;-81
2021/01/17 08:23:11;;;;;;;15.90;7.35;;;;;8.60;101458.00;;;;5003280;28;20255;-81
2021/01/17 08:25:55;;;;;;;13.57;6.70;;;;;8.60;101462.00;;;;5000116;28;20198;-81
2021/01/17 08:28:43;;;;;;;15.98;7.80;;;;;8.60;101471.00;;;;5003508;28;20235;-82
2021/01/17 08:31:32;;;;;;;15.25;7.18;;;;;8.60;101475.00;;;;5006527;28;20197;-81
2021/01/17 08:34:12;;;;;;;15.45;6.80;;;;;8.70;101477.00;;;;5008085;28;20605;-81
2021/01/17 08:36:39;;;;;;;13.18;6.63;;;;;8.70;101494.00;;;;5007140;28;20279;-80
2021/01/17 08:39:07;;;;;;;13.60;6.38;;;;;8.80;101489.00;;;;5004377;28;20624;-80
2021/01/17 08:41:35;;;;;;;17.52;7.00;;;;;8.80;101493.00;;;;5006287;28;20208;-80
2021/01/17 08:44:01;;;;;;;10.60;6.15;;;;;8.80;101494.00;;;;4996596;28;20728;-80
2021/01/17 08:46:36;;;;;;;13.77;7.65;;;;;8.80;101493.00;;;;5007270;28;20205;-80
2021/01/17 08:49:03;;;;;;;15.63;7.25;;;;;8.90;101500.00;;;;5007147;28;20250;-81
2021/01/17 08:51:30;;;;;;;13.70;7.15;;;;;8.90;101501.00;;;;5003213;28;20213;-80
2021/01/17 08:54:17;;;;;;;13.20;6.70;;;;;8.90;101513.00;;;;5007357;28;20570;-79
2021/01/17 08:56:45;;;;;;;14.50;7.88;;;;;8.90;101511.00;;;;5008795;28;20201;-79
2021/01/17 08:59:32;;;;;;;13.75;7.35;;;;;8.90;101514.00;;;;5002325;28;20568;-79
2021/01/17 09:01:59;;;;;;;14.95;7.18;;;;;9.00;101516.00;;;;5004749;28;20575;-79
2021/01/17 09:04:27;;;;;;;11.13;6.07;;;;;9.00;101512.00;;;;4993090;28;20212;-80
2021/01/17 09:06:54;;;;;;;13.55;7.43;;;;;9.00;101518.00;;;;5000399;28;20197;-77
2021/01/17 09:09:22;;;;;;;16.05;7.63;;;;;9.00;101517.00;;;;4997514;28;20237;-78
2021/01/17 09:11:50;;;;;;;12.43;6.93;;;;;9.00;101514.00;;;;4993348;28;20194;-78
2021/01/17 09:14:20;;;;;;;12.65;7.32;;;;;9.00;101520.00;;;;4992740;28;20661;-78
2021/01/17 09:16:49;;;;;;;10.93;6.25;;;;;9.00;101525.00;;;;4993604;28;20197;-78
2021/01/17 09:19:17;;;;;;;11.85;6.53;;;;;9.00;101527.00;;;;4993706;28;20205;-78
2021/01/17 09:21:44;;;;;;;12.88;5.80;;;;;9.00;101529.00;;;;4993213;28;20681;-78
2021/01/17 09:24:16;;;;;;;16.00;6.55;;;;;9.00;101530.00;;;;4992695;28;20259;-78
2021/01/17 09:26:45;;;;;;;13.07;6.43;;;;;9.00;101534.00;;;;4993182;28;20198;-78
2021/01/17 09:29:21;;;;;;;11.70;7.07;;;;;9.00;101543.00;;;;4992616;28;20229;-78
2021/01/17 09:31:52;;;;;;;11.63;6.38;;;;;9.00;101544.00;;;;5007053;28;20786;-78
2021/01/17 09:34:23;;;;;;;10.90;5.82;;;;;9.00;101555.00;;;;5027434;28;20212;-79
2021/01/17 09:36:50;;;;;;;10.30;5.82;;;;;9.10;101562.00;;;;5012719;28;20634;-79
2021/01/17 09:39:36;;;;;;;10.05;5.95;;;;;9.00;101565.00;;;;5012270;28;20217;-79
2021/01/17 09:42:05;;;;;;;12.75;6.80;;;;;9.10;101566.00;;;;5002136;28;20252;-78
2021/01/17 09:44:34;;;;;;;12.05;6.85;;;;;9.10;101565.00;;;;5008285;28;20232;-79
2021/01/17 09:47:01;;;;;;;14.43;7.47;;;;;9.10;101572.00;;;;5011151;28;20200;-79
2021/01/17 09:49:31;;;;;;;12.65;6.07;;;;;9.10;101583.00;;;;5010778;28;20228;-78
2021/01/17 09:51:58;;;;;;;10.70;5.78;;;;;9.20;101587.00;;;;5009882;28;20205;-79
2021/01/17 09:54:25;;;;;;;11.95;6.82;;;;;9.20;101594.00;;;;5005353;28;20663;-79
2021/01/17 09:56:52;;;;;;;14.32;7.10;;;;;9.20;101598.00;;;;5007396;28;20209;-79
2021/01/17 09:59:22;;;;;;;10.90;6.57;;;;;9.20;101601.00;;;;5005142;28;20233;-79
2021/01/17 10:01:51;;;;;;;14.25;6.43;;;;;9.30;101596.00;;;;5012475;28;20205;-79
2021/01/17 10:04:25;;;;;;;10.77;5.65;;;;;9.30;101603.00;;;;5011583;28;20209;-79
2021/01/17 10:06:54;;;;;;;11.40;5.88;;;;;9.30;101600.00;;;;5010450;28;20690;-79
2021/01/17 10:09:22;;;;;;;11.80;6.15;;;;;9.40;101606.00;;;;5008818;28;20244;-79
2021/01/17 10:11:54;;;;;;;12.20;6.35;;;;;9.40;101608.00;;;;5010801;28;20193;-80
2021/01/17 10:14:27;;;;;;;12.27;5.72;;;;;9.50;101612.00;;;;5010887;28;20609;-79
2021/01/17 10:16:55;;;;;;;10.55;5.80;;;;;9.60;101623.00;;;;5010869;28;20663;-79
2021/01/17 10:19:27;;;;;;;10.18;5.53;;;;;9.60;101621.00;;;;5010139;28;20694;-80
2021/01/17 10:21:55;;;;;;;10.82;5.90;;;;;9.80;101614.00;;;;5010890;28;20341;-80
2021/01/17 10:24:26;;;;;;;10.88;6.22;;;;;9.80;101617.00;;;;5010566;28;20216;-79
2021/01/17 10:26:55;;;;;;;10.68;5.50;;;;;9.80;101621.00;;;;5010475;28;20216;-79
2021/01/17 10:29:23;;;;;;;11.75;6.28;;;;;9.90;101631.00;;;;5000732;28;20241;-79
2021/01/17 10:31:58;;;;;;;10.27;5.93;;;;;9.90;101622.00;;;;5008409;28;20201;-79
2021/01/17 10:34:33;;;;;;;13.20;6.88;;;;;10.00;101633.00;;;;4995205;28;20625;-79
2021/01/17 10:37:03;;;;;;;11.18;5.80;;;;;10.10;101631.00;;;;5003249;28;20201;-79
2021/01/17 10:39:31;;;;;;;11.05;6.07;;;;;10.10;101642.00;;;;5006895;28;20235;-79
2021/01/17 10:42:08;;;;;;;10.77;6.32;;;;;10.10;101635.00;;;;5009528;28;20201;-79
2021/01/17 10:44:41;;;;;;;13.77;6.90;;;;;10.20;101640.00;;;;5006875;28;20203;-78
2021/01/17 10:47:19;;;;;;;12.05;6.75;;;;;10.30;101646.00;;;;4999843;28;20641;-77
2021/01/17 10:49:47;;;;;;;16.58;6.53;;;;;10.50;101655.00;;;;4998737;28;20232;-75
2021/01/17 10:52:21;;;;;;;11.75;6.45;;;;;10.60;101653.00;;;;5006546;28;20200;-75
2021/01/17 10:54:49;;;;;;;10.27;5.35;;;;;10.70;101660.00;;;;4998412;28;20201;-76
2021/01/17 10:57:19;;;;;;;8.30;4.72;;;;;10.70;101658.00;;;;5003622;28;20201;-76
2021/01/17 10:59:46;;;;;;;11.43;5.13;;;;;10.70;101662.00;;;;5007342;28;20232;-76
2021/01/17 11:02:23;;;;;;;13.63;5.10;;;;;10.70;101658.00;;;;5007640;28;20209;-77
2021/01/17 11:04:50;;;;;;;6.63;2.92;;;;;10.70;101648.00;;;;5010578;28;20532;-78
2021/01/17 11:07:20;;;;;;;5.47;2.53;;;;;10.70;101664.00;;;;5010777;28;20201;-77
2021/01/17 11:09:47;;;;;;;6.07;2.72;;;;;10.80;101664.00;;;;5007333;28;20359;-78
2021/01/17 11:12:14;;;;;;;5.25;2.13;;;;;10.80;101653.00;;;;5005186;28;20199;-77
2021/01/17 11:14:41;;;;;;;6.25;2.55;;;;;10.90;101657.00;;;;5008814;28;20197;-78
2021/01/17 11:17:07;;;;;;;5.90;2.80;;;;;10.90;101660.00;;;;5007276;28;20548;-78
2021/01/17 11:19:37;;;;;;;7.28;3.78;;;;;10.90;101654.00;;;;5006078;28;20256;-78
2021/01/17 11:22:07;;;;;;;5.82;3.05;;;;;11.00;101666.00;;;;5001661;28;20197;-77
2021/01/17 11:24:36;;;;;;;5.38;3.05;;;;;11.00;101663.00;;;;5010299;28;20205;-78
2021/01/17 11:27:11;;;;;;;6.47;2.85;;;;;11.00;101669.00;;;;5007527;28;20209;-77
2021/01/17 11:29:38;;;;;;;8.13;2.58;;;;;11.10;101670.00;;;;5009906;28;20228;-78
2021/01/17 11:32:05;;;;;;;8.02;3.08;;;;;11.20;101672.00;;;;4997213;28;20205;-78
2021/01/17 11:34:37;;;;;;;6.68;2.90;;;;;11.20;101678.00;;;;5003317;28;20241;-78
2021/01/17 11:37:04;;;;;;;9.32;3.08;;;;;11.40;101675.00;;;;5007071;28;20224;-78
2021/01/17 11:39:31;;;;;;;4.57;2.47;;;;;11.50;101672.00;;;;5008960;28;20205;-77
2021/01/17 11:41:58;;;;;;;7.22;3.05;;;;;11.60;101676.00;;;;5007913;28;20205;-78
2021/01/17 11:44:30;;;;;;;9.45;2.65;;;;;11.60;101669.00;;;;5006526;28;20200;-78
2021/01/17 11:47:00;;;;;;;4.32;2.42;;;;;11.70;101674.00;;;;5006947;28;21042;-78
2021/01/17 11:49:28;;;;;;;5.32;2.08;;;;;11.80;101677.00;;;;5008737;28;20232;-78
2021/01/17 11:51:56;;;;;;;4.20;1.65;;;;;11.80;101676.00;;;;5008986;28;20675;-78
2021/01/17 11:54:25;;;;;;;6.65;1.60;;;;;11.80;101680.00;;;;5008254;28;20208;-81
2021/01/17 11:57:04;;;;;;;7.35;2.13;;;;;11.80;101674.00;;;;5002669;28;20584;-81
2021/01/17 11:59:31;;;;;;;7.97;2.38;;;;;11.80;101680.00;;;;5011035;28;20256;-81
2021/01/17 12:01:58;;;;;;;7.22;1.80;;;;;11.90;101680.00;;;;5006358;28;20207;-80
2021/01/17 12:04:27;;;;;;;4.72;1.88;;;;;11.90;101685.00;;;;5009212;28;20217;-80
2021/01/17 12:07:06;;;;;;;3.25;1.48;;;;;11.90;101683.00;;;;5007192;28;20205;-79
2021/01/17 12:09:32;;;;;;;8.30;1.88;;;;;12.00;101690.00;;;;5007614;28;20232;-80
2021/01/17 12:12:14;;;;;;;5.95;1.88;;;;;12.00;101691.00;;;;5010688;28;20193;-80
2021/01/17 12:14:44;;;;;;;8.25;1.88;;;;;12.20;101685.00;;;;5011956;28;20193;-81
2021/01/17 12:17:11;;;;;;;8.07;1.35;;;;;12.30;101693.00;;;;5007846;28;20235;-80
2021/01/17 12:19:38;;;;;;;4.88;1.75;;;;;12.40;101696.00;;;;5008103;28;20609;-80
2021/01/17 12:22:07;;;;;;;5.97;1.77;;;;;12.50;101691.00;;;;5004105;28;20197;-80
2021/01/17 12:24:35;;;;;;;4.10;1.27;;;;;12.60;101694.00;;;;4999165;28;20198;-80